sensor_id;sensor_type;location;lat;lon;timestamp;pressure;altitude;pressure_sealevel;temperature;humidity
42669;BME280;29384;42.028;21.388;2022-08-04T00:01:29;98511.84;;;21.88;60.28
42669;BME280;29384;42.028;21.388;2022-08-04T00:04:08;98514.72;;;21.66;61.12
42669;BME280;29384;42.028;21.388;2022-08-04T00:06:44;98515.69;;;21.61;61.15
42669;BME280;29384;42.028;21.388;2022-08-04T00:09:16;98521.88;;;21.18;61.40
42669;BME280;29384;42.028;21.388;2022-08-04T00:11:47;98519.38;;;21.13;62.08
42669;BME280;29384;42.028;21.388;2022-08-04T00:14:14;98518.44;;;20.83;64.05
42669;BME280;29384;42.028;21.388;2022-08-04T00:16:41;98521.09;;;20.83;63.22
42669;BME280;29384;42.028;21.388;2022-08-04T00:19:29;98518.44;;;21.09;62.94
42669;BME280;29384;42.028;21.388;2022-08-04T00:21:59;98519.84;;;21.24;62.69
42669;BME280;29384;42.028;21.388;2022-08-04T00:24:29;98517.81;;;21.12;63.12
42669;BME280;29384;42.028;21.388;2022-08-04T00:26:55;98512.81;;;21.11;64.57
42669;BME280;29384;42.028;21.388;2022-08-04T00:29:21;98517.81;;;20.95;64.28
42669;BME280;29384;42.028;21.388;2022-08-04T00:31:47;98524.22;;;20.76;64.29
42669;BME280;29384;42.028;21.388;2022-08-04T00:34:13;98520.47;;;20.69;64.31
42669;BME280;29384;42.028;21.388;2022-08-04T00:36:41;98524.53;;;20.58;64.55
42669;BME280;29384;42.028;21.388;2022-08-04T00:39:11;98518.59;;;20.87;64.93
42669;BME280;29384;42.028;21.388;2022-08-04T00:46:59;98529.19;;;20.43;65.50
42669;BME280;29384;42.028;21.388;2022-08-04T01:00:37;98537.25;;;20.29;66.66
42669;BME280;29384;42.028;21.388;2022-08-04T01:16:57;98532.19;;;20.59;65.93
42669;BME280;29384;42.028;21.388;2022-08-04T01:31:53;98532.56;;;20.35;66.06
42669;BME280;29384;42.028;21.388;2022-08-04T01:40:36;98532.97;;;20.02;66.56
42669;BME280;29384;42.028;21.388;2022-08-04T01:43:02;98535.44;;;19.99;67.09
42669;BME280;29384;42.028;21.388;2022-08-04T01:45:29;98533.53;;;19.59;68.28
42669;BME280;29384;42.028;21.388;2022-08-04T01:47:55;98536.09;;;19.20;69.74
42669;BME280;29384;42.028;21.388;2022-08-04T01:53:56;98535.13;;;19.16;70.74
42669;BME280;29384;42.028;21.388;2022-08-04T01:56:23;98537.63;;;19.43;69.65
42669;BME280;29384;42.028;21.388;2022-08-04T01:58:56;98531.25;;;19.44;69.91
42669;BME280;29384;42.028;21.388;2022-08-04T02:01:21;98533.34;;;19.56;69.09
42669;BME280;29384;42.028;21.388;2022-08-04T02:03:47;98535.47;;;19.68;68.06
42669;BME280;29384;42.028;21.388;2022-08-04T02:10:04;98526.84;;;19.62;67.02
42669;BME280;29384;42.028;21.388;2022-08-04T02:15:35;98528.59;;;19.22;69.39
42669;BME280;29384;42.028;21.388;2022-08-04T02:21:00;98528.25;;;19.37;69.66
42669;BME280;29384;42.028;21.388;2022-08-04T02:23:37;98527.88;;;19.07;70.64
42669;BME280;29384;42.028;21.388;2022-08-04T02:26:04;98527.06;;;18.98;71.69
42669;BME280;29384;42.028;21.388;2022-08-04T02:33:47;98533.78;;;19.49;70.35
42669;BME280;29384;42.028;21.388;2022-08-04T02:36:23;98530.91;;;19.37;70.37
42669;BME280;29384;42.028;21.388;2022-08-04T02:38:58;98531.72;;;19.46;70.45
42669;BME280;29384;42.028;21.388;2022-08-04T02:41:25;98523.66;;;19.51;70.80
42669;BME280;29384;42.028;21.388;2022-08-04T02:43:55;98535.22;;;19.55;70.29
42669;BME280;29384;42.028;21.388;2022-08-04T02:46:22;98529.44;;;19.53;69.65
42669;BME280;29384;42.028;21.388;2022-08-04T02:48:50;98532.41;;;19.52;70.03
42669;BME280;29384;42.028;21.388;2022-08-04T02:51:21;98532.94;;;19.63;70.15
42669;BME280;29384;42.028;21.388;2022-08-04T02:53:51;98531.84;;;19.64;68.64
42669;BME280;29384;42.028;21.388;2022-08-04T02:56:18;98539.81;;;19.64;68.11
42669;BME280;29384;42.028;21.388;2022-08-04T02:58:51;98541.47;;;19.59;68.11
42669;BME280;29384;42.028;21.388;2022-08-04T03:01:17;98544.63;;;19.62;68.07
42669;BME280;29384;42.028;21.388;2022-08-04T03:07:09;98533.03;;;19.57;68.13
42669;BME280;29384;42.028;21.388;2022-08-04T03:13:07;98540.53;;;19.55;68.10
42669;BME280;29384;42.028;21.388;2022-08-04T03:35:05;98555.44;;;19.20;68.30
42669;BME280;29384;42.028;21.388;2022-08-04T03:37:57;98548.25;;;18.98;69.74
42669;BME280;29384;42.028;21.388;2022-08-04T03:40:52;98555.34;;;18.61;71.32
42669;BME280;29384;42.028;21.388;2022-08-04T03:59:19;98564.56;;;19.14;71.58
42669;BME280;29384;42.028;21.388;2022-08-04T04:01:49;98560.91;;;19.01;72.28
42669;BME280;29384;42.028;21.388;2022-08-04T04:14:42;98576.09;;;19.77;71.36
42669;BME280;29384;42.028;21.388;2022-08-04T04:22:43;98576.66;;;20.45;66.87
42669;BME280;29384;42.028;21.388;2022-08-04T04:28:17;98581.31;;;20.96;66.51
42669;BME280;29384;42.028;21.388;2022-08-04T04:34:01;98591.47;;;21.55;62.91
42669;BME280;29384;42.028;21.388;2022-08-04T04:48:11;98595.47;;;22.34;61.18
42669;BME280;29384;42.028;21.388;2022-08-04T04:54:07;98603.78;;;22.62;56.92
42669;BME280;29384;42.028;21.388;2022-08-04T04:59:26;98597.84;;;23.28;56.96
42669;BME280;29384;42.028;21.388;2022-08-04T05:02:14;98599.63;;;23.57;54.93
42669;BME280;29384;42.028;21.388;2022-08-04T05:08:22;98598.25;;;23.84;53.91
42669;BME280;29384;42.028;21.388;2022-08-04T05:13:47;98602.53;;;24.10;52.89
42669;BME280;29384;42.028;21.388;2022-08-04T05:16:26;98607.78;;;24.55;51.68
42669;BME280;29384;42.028;21.388;2022-08-04T05:24:20;98608.63;;;25.37;49.25
42669;BME280;29384;42.028;21.388;2022-08-04T05:26:50;98607.31;;;25.74;48.37
42669;BME280;29384;42.028;21.388;2022-08-04T05:29:37;98618.59;;;25.96;48.21
42669;BME280;29384;42.028;21.388;2022-08-04T05:32:12;98611.88;;;26.02;48.06
42669;BME280;29384;42.028;21.388;2022-08-04T05:34:43;98621.38;;;26.31;47.05
42669;BME280;29384;42.028;21.388;2022-08-04T05:37:16;98623.59;;;26.45;46.19
42669;BME280;29384;42.028;21.388;2022-08-04T05:39:50;98618.59;;;26.28;47.04
42669;BME280;29384;42.028;21.388;2022-08-04T05:42:18;98615.31;;;26.34;46.79
42669;BME280;29384;42.028;21.388;2022-08-04T05:44:45;98615.56;;;26.45;46.27
42669;BME280;29384;42.028;21.388;2022-08-04T05:47:11;98624.41;;;26.81;46.41
42669;BME280;29384;42.028;21.388;2022-08-04T05:49:38;98621.06;;;27.03;45.78
42669;BME280;29384;42.028;21.388;2022-08-04T05:52:07;98623.16;;;27.29;44.87
42669;BME280;29384;42.028;21.388;2022-08-04T05:54:34;98622.69;;;27.08;46.34
42669;BME280;29384;42.028;21.388;2022-08-04T05:57:04;98615.81;;;27.46;45.28
42669;BME280;29384;42.028;21.388;2022-08-04T05:59:31;98603.75;;;27.59;44.16
42669;BME280;29384;42.028;21.388;2022-08-04T06:01:58;98609.31;;;27.70;44.16
42669;BME280;29384;42.028;21.388;2022-08-04T06:04:28;98615.31;;;27.82;43.71
42669;BME280;29384;42.028;21.388;2022-08-04T06:06:55;98607.81;;;27.92;44.00
42669;BME280;29384;42.028;21.388;2022-08-04T06:09:21;98614.78;;;27.96;43.52
42669;BME280;29384;42.028;21.388;2022-08-04T06:11:48;98618.97;;;28.17;42.69
42669;BME280;29384;42.028;21.388;2022-08-04T06:14:15;98613.00;;;28.30;41.11
42669;BME280;29384;42.028;21.388;2022-08-04T06:16:42;98613.44;;;28.55;41.53
42669;BME280;29384;42.028;21.388;2022-08-04T06:19:12;98611.34;;;28.72;40.22
42669;BME280;29384;42.028;21.388;2022-08-04T06:21:40;98617.38;;;28.92;39.81
42669;BME280;29384;42.028;21.388;2022-08-04T06:24:09;98612.16;;;28.76;39.73
42669;BME280;29384;42.028;21.388;2022-08-04T06:26:36;98612.44;;;28.97;39.48
42669;BME280;29384;42.028;21.388;2022-08-04T06:29:03;98611.25;;;28.65;40.10
42669;BME280;29384;42.028;21.388;2022-08-04T06:31:31;98603.22;;;28.98;40.42
42669;BME280;29384;42.028;21.388;2022-08-04T06:34:23;98610.88;;;28.96;40.37
42669;BME280;29384;42.028;21.388;2022-08-04T06:36:50;98610.47;;;29.24;39.88
42669;BME280;29384;42.028;21.388;2022-08-04T06:39:17;98611.72;;;29.30;40.66
42669;BME280;29384;42.028;21.388;2022-08-04T06:41:43;98604.38;;;29.27;40.16
42669;BME280;29384;42.028;21.388;2022-08-04T06:44:10;98608.44;;;29.48;38.29
42669;BME280;29384;42.028;21.388;2022-08-04T06:46:39;98613.44;;;29.49;37.90
42669;BME280;29384;42.028;21.388;2022-08-04T06:49:05;98605.66;;;29.78;37.46
42669;BME280;29384;42.028;21.388;2022-08-04T06:51:33;98614.91;;;30.18;35.84
42669;BME280;29384;42.028;21.388;2022-08-04T06:54:00;98614.97;;;30.25;35.89
42669;BME280;29384;42.028;21.388;2022-08-04T06:56:29;98612.59;;;30.79;34.58
42669;BME280;29384;42.028;21.388;2022-08-04T06:58:55;98620.53;;;30.50;34.39
42669;BME280;29384;42.028;21.388;2022-08-04T07:01:23;98613.41;;;30.83;34.62
42669;BME280;29384;42.028;21.388;2022-08-04T07:03:51;98607.00;;;31.27;33.32
42669;BME280;29384;42.028;21.388;2022-08-04T07:06:17;98617.53;;;31.50;33.96
42669;BME280;29384;42.028;21.388;2022-08-04T07:08:43;98604.38;;;31.48;34.04
42669;BME280;29384;42.028;21.388;2022-08-04T07:11:10;98602.38;;;31.31;35.38
42669;BME280;29384;42.028;21.388;2022-08-04T07:13:36;98595.72;;;30.92;37.56
42669;BME280;29384;42.028;21.388;2022-08-04T07:16:03;98607.00;;;31.27;36.02
42669;BME280;29384;42.028;21.388;2022-08-04T07:18:30;98594.38;;;31.56;34.91
42669;BME280;29384;42.028;21.388;2022-08-04T07:20:56;98610.66;;;31.92;34.54
42669;BME280;29384;42.028;21.388;2022-08-04T07:23:23;98600.97;;;32.05;34.41
42669;BME280;29384;42.028;21.388;2022-08-04T07:25:54;98601.72;;;31.80;32.56
42669;BME280;29384;42.028;21.388;2022-08-04T07:28:21;98597.91;;;32.13;32.69
42669;BME280;29384;42.028;21.388;2022-08-04T07:30:48;98595.94;;;32.18;32.89
42669;BME280;29384;42.028;21.388;2022-08-04T07:33:15;98595.16;;;32.38;33.82
42669;BME280;29384;42.028;21.388;2022-08-04T07:35:42;98598.28;;;32.05;33.43
42669;BME280;29384;42.028;21.388;2022-08-04T07:38:08;98598.28;;;31.87;33.60
42669;BME280;29384;42.028;21.388;2022-08-04T07:40:36;98598.66;;;31.89;34.81
42669;BME280;29384;42.028;21.388;2022-08-04T07:43:03;98586.69;;;32.15;33.03
42669;BME280;29384;42.028;21.388;2022-08-04T07:45:28;98587.44;;;32.12;32.48
42669;BME280;29384;42.028;21.388;2022-08-04T07:47:54;98591.69;;;31.84;34.09
42669;BME280;29384;42.028;21.388;2022-08-04T07:50:21;98588.09;;;31.30;33.73
42669;BME280;29384;42.028;21.388;2022-08-04T07:56:08;98583.56;;;32.31;30.64
42669;BME280;29384;42.028;21.388;2022-08-04T07:58:35;98585.09;;;32.35;31.86
42669;BME280;29384;42.028;21.388;2022-08-04T08:01:01;98570.47;;;31.94;32.81
42669;BME280;29384;42.028;21.388;2022-08-04T08:03:26;98580.09;;;32.27;32.58
42669;BME280;29384;42.028;21.388;2022-08-04T08:05:52;98573.50;;;32.56;33.00
42669;BME280;29384;42.028;21.388;2022-08-04T08:08:18;98580.47;;;32.43;34.44
42669;BME280;29384;42.028;21.388;2022-08-04T08:10:46;98572.75;;;32.45;34.95
42669;BME280;29384;42.028;21.388;2022-08-04T08:13:13;98577.34;;;32.59;31.72
42669;BME280;29384;42.028;21.388;2022-08-04T08:15:40;98574.28;;;32.35;33.63
42669;BME280;29384;42.028;21.388;2022-08-04T08:18:08;98576.63;;;32.12;33.03
42669;BME280;29384;42.028;21.388;2022-08-04T08:20:33;98578.97;;;32.06;33.06
42669;BME280;29384;42.028;21.388;2022-08-04T08:26:21;98568.03;;;32.67;31.38
42669;BME280;29384;42.028;21.388;2022-08-04T08:28:47;98580.38;;;32.72;31.34
42669;BME280;29384;42.028;21.388;2022-08-04T08:31:12;98574.69;;;32.30;31.64
42669;BME280;29384;42.028;21.388;2022-08-04T08:33:38;98571.50;;;32.68;31.04
42669;BME280;29384;42.028;21.388;2022-08-04T08:36:22;98567.28;;;32.63;31.03
42669;BME280;29384;42.028;21.388;2022-08-04T08:39:11;98575.44;;;32.38;31.40
42669;BME280;29384;42.028;21.388;2022-08-04T08:42:07;98570.41;;;32.51;31.76
42669;BME280;29384;42.028;21.388;2022-08-04T09:00:10;98561.13;;;32.52;33.15
42669;BME280;29384;42.028;21.388;2022-08-04T09:14:31;98551.84;;;32.56;36.94
42669;BME280;29384;42.028;21.388;2022-08-04T09:17:17;98550.88;;;33.06;34.86
42669;BME280;29384;42.028;21.388;2022-08-04T09:19:51;98546.94;;;33.14;31.68
42669;BME280;29384;42.028;21.388;2022-08-04T09:22:35;98550.03;;;33.20;32.86
42669;BME280;29384;42.028;21.388;2022-08-04T09:25:11;98543.47;;;33.14;31.99
42669;BME280;29384;42.028;21.388;2022-08-04T09:27:52;98555.53;;;33.02;28.80
42669;BME280;29384;42.028;21.388;2022-08-04T09:30:35;98542.31;;;33.15;28.29
42669;BME280;29384;42.028;21.388;2022-08-04T09:33:25;98542.88;;;33.51;30.25
42669;BME280;29384;42.028;21.388;2022-08-04T09:47:31;98538.19;;;33.59;29.10
42669;BME280;29384;42.028;21.388;2022-08-04T09:52:55;98535.16;;;33.94;28.02
42669;BME280;29384;42.028;21.388;2022-08-04T09:58:27;98520.34;;;34.44;30.86
42669;BME280;29384;42.028;21.388;2022-08-04T10:01:04;98514.50;;;34.11;30.22
42669;BME280;29384;42.028;21.388;2022-08-04T10:03:48;98518.31;;;33.72;29.25
42669;BME280;29384;42.028;21.388;2022-08-04T10:09:51;98507.34;;;33.35;28.86
42669;BME280;29384;42.028;21.388;2022-08-04T10:15:02;98512.28;;;32.80;29.15
42669;BME280;29384;42.028;21.388;2022-08-04T10:27:16;98497.72;;;32.53;28.68
42669;BME280;29384;42.028;21.388;2022-08-04T10:29:46;98500.84;;;32.33;28.58
42669;BME280;29384;42.028;21.388;2022-08-04T10:32:33;98503.56;;;32.19;27.78
42669;BME280;29384;42.028;21.388;2022-08-04T10:35:13;98502.03;;;32.14;27.23
42669;BME280;29384;42.028;21.388;2022-08-04T10:40:26;98493.38;;;32.70;26.71
42669;BME280;29384;42.028;21.388;2022-08-04T10:46:09;98490.00;;;32.51;27.90
42669;BME280;29384;42.028;21.388;2022-08-04T10:54:50;98487.53;;;32.78;27.83
42669;BME280;29384;42.028;21.388;2022-08-04T10:57:22;98485.41;;;33.18;26.99
42669;BME280;29384;42.028;21.388;2022-08-04T11:00:03;98477.34;;;33.04;26.69
42669;BME280;29384;42.028;21.388;2022-08-04T11:02:39;98480.72;;;33.22;25.62
42669;BME280;29384;42.028;21.388;2022-08-04T11:11:42;98464.16;;;33.10;26.28
42669;BME280;29384;42.028;21.388;2022-08-04T11:14:26;98466.47;;;33.15;26.05
42669;BME280;29384;42.028;21.388;2022-08-04T11:19:40;98466.63;;;33.42;25.62
42669;BME280;29384;42.028;21.388;2022-08-04T11:24:54;98455.69;;;33.04;26.70
42669;BME280;29384;42.028;21.388;2022-08-04T11:27:54;98456.16;;;33.44;26.79
42669;BME280;29384;42.028;21.388;2022-08-04T11:30:24;98457.09;;;33.26;24.67
42669;BME280;29384;42.028;21.388;2022-08-04T11:35:46;98450.91;;;33.22;24.87
42669;BME280;29384;42.028;21.388;2022-08-04T11:38:21;98440.09;;;33.22;25.62
42669;BME280;29384;42.028;21.388;2022-08-04T11:40:59;98443.94;;;33.21;23.93
42669;BME280;29384;42.028;21.388;2022-08-04T11:43:39;98447.41;;;33.25;25.48
42669;BME280;29384;42.028;21.388;2022-08-04T11:46:08;98440.03;;;33.29;23.75
42669;BME280;29384;42.028;21.388;2022-08-04T11:48:44;98448.66;;;33.14;25.03
42669;BME280;29384;42.028;21.388;2022-08-04T11:51:13;98432.09;;;33.04;26.91
42669;BME280;29384;42.028;21.388;2022-08-04T11:53:39;98431.34;;;32.97;25.41
42669;BME280;29384;42.028;21.388;2022-08-04T11:56:09;98426.59;;;33.15;25.29
42669;BME280;29384;42.028;21.388;2022-08-04T11:58:36;98421.22;;;33.08;24.53
42669;BME280;29384;42.028;21.388;2022-08-04T12:01:55;98418.09;;;33.13;25.60
42669;BME280;29384;42.028;21.388;2022-08-04T12:10:50;98406.84;;;33.15;30.51
42669;BME280;29384;42.028;21.388;2022-08-04T12:13:35;98412.03;;;33.43;29.37
42669;BME280;29384;42.028;21.388;2022-08-04T12:18:49;98412.00;;;33.47;28.23
42669;BME280;29384;42.028;21.388;2022-08-04T12:21:32;98410.38;;;33.57;30.88
42669;BME280;29384;42.028;21.388;2022-08-04T12:27:24;98413.72;;;33.26;27.93
42669;BME280;29384;42.028;21.388;2022-08-04T12:29:52;98406.97;;;32.93;27.81
42669;BME280;29384;42.028;21.388;2022-08-04T12:32:25;98411.72;;;32.78;27.44
42669;BME280;29384;42.028;21.388;2022-08-04T12:35:02;98404.09;;;32.59;28.60
42669;BME280;29384;42.028;21.388;2022-08-04T12:40:25;98394.13;;;32.38;29.84
42669;BME280;29384;42.028;21.388;2022-08-04T12:45:43;98402.63;;;32.36;29.43
42669;BME280;29384;42.028;21.388;2022-08-04T12:48:11;98402.63;;;32.36;29.45
42669;BME280;29384;42.028;21.388;2022-08-04T12:50:37;98403.44;;;32.33;30.05
42669;BME280;29384;42.028;21.388;2022-08-04T12:53:11;98393.00;;;32.28;29.70
42669;BME280;29384;42.028;21.388;2022-08-04T12:55:44;98391.88;;;32.22;30.31
42669;BME280;29384;42.028;21.388;2022-08-04T12:58:15;98392.66;;;32.26;29.92
42669;BME280;29384;42.028;21.388;2022-08-04T13:00:43;98390.25;;;32.39;30.58
42669;BME280;29384;42.028;21.388;2022-08-04T13:03:15;98382.16;;;32.43;31.09
42669;BME280;29384;42.028;21.388;2022-08-04T13:05:42;98381.78;;;32.37;29.96
42669;BME280;29384;42.028;21.388;2022-08-04T13:08:10;98385.25;;;32.45;29.76
42669;BME280;29384;42.028;21.388;2022-08-04T13:10:43;98380.94;;;32.51;30.26
42669;BME280;29384;42.028;21.388;2022-08-04T13:13:22;98368.91;;;32.59;31.05
42669;BME280;29384;42.028;21.388;2022-08-04T13:16:05;98373.44;;;32.76;29.42
42669;BME280;29384;42.028;21.388;2022-08-04T13:18:36;98371.44;;;32.88;29.75
42669;BME280;29384;42.028;21.388;2022-08-04T13:21:16;98367.03;;;33.08;29.85
42669;BME280;29384;42.028;21.388;2022-08-04T13:23:43;98373.53;;;33.18;29.88
42669;BME280;29384;42.028;21.388;2022-08-04T13:26:16;98372.72;;;33.21;29.89
42669;BME280;29384;42.028;21.388;2022-08-04T13:28:46;98373.13;;;33.19;27.55
42669;BME280;29384;42.028;21.388;2022-08-04T13:31:19;98365.88;;;33.09;27.74
42669;BME280;29384;42.028;21.388;2022-08-04T13:33:49;98345.88;;;32.89;27.25
42669;BME280;29384;42.028;21.388;2022-08-04T13:36:17;98367.72;;;33.19;25.74
42669;BME280;29384;42.028;21.388;2022-08-04T13:38:52;98364.16;;;33.29;25.44
42669;BME280;29384;42.028;21.388;2022-08-04T13:41:20;98364.94;;;33.26;26.10
42669;BME280;29384;42.028;21.388;2022-08-04T13:43:55;98355.16;;;32.95;26.68
42669;BME280;29384;42.028;21.388;2022-08-04T13:46:27;98359.03;;;32.90;26.09
42669;BME280;29384;42.028;21.388;2022-08-04T13:48:55;98352.81;;;32.90;26.48
42669;BME280;29384;42.028;21.388;2022-08-04T13:51:22;98353.97;;;32.96;26.71
42669;BME280;29384;42.028;21.388;2022-08-04T13:53:57;98350.50;;;32.95;26.65
42669;BME280;29384;42.028;21.388;2022-08-04T13:56:30;98348.94;;;32.94;26.64
42669;BME280;29384;42.028;21.388;2022-08-04T13:58:59;98346.28;;;32.87;25.05
42669;BME280;29384;42.028;21.388;2022-08-04T14:01:26;98345.09;;;32.92;25.10
42669;BME280;29384;42.028;21.388;2022-08-04T14:04:03;98343.94;;;32.89;25.31
42669;BME280;29384;42.028;21.388;2022-08-04T14:06:33;98342.59;;;32.63;25.33
42669;BME280;29384;42.028;21.388;2022-08-04T14:09:11;98343.38;;;32.60;25.80
42669;BME280;29384;42.028;21.388;2022-08-04T14:12:06;98337.69;;;32.44;25.83
42669;BME280;29384;42.028;21.388;2022-08-04T14:14:33;98346.97;;;32.43;27.15
42669;BME280;29384;42.028;21.388;2022-08-04T14:17:08;98350.09;;;32.41;25.94
42669;BME280;29384;42.028;21.388;2022-08-04T14:19:49;98346.13;;;32.53;25.76
42669;BME280;29384;42.028;21.388;2022-08-04T14:25:06;98352.28;;;32.57;25.96
42669;BME280;29384;42.028;21.388;2022-08-04T14:27:45;98353.50;;;32.49;26.09
42669;BME280;29384;42.028;21.388;2022-08-04T14:30:36;98350.84;;;32.42;26.76
42669;BME280;29384;42.028;21.388;2022-08-04T14:35:29;98349.34;;;32.23;27.73
42669;BME280;29384;42.028;21.388;2022-08-04T14:41:20;98355.19;;;32.18;27.39
42669;BME280;29384;42.028;21.388;2022-08-04T14:43:52;98349.00;;;32.21;26.28
42669;BME280;29384;42.028;21.388;2022-08-04T14:46:19;98344.41;;;32.07;27.42
42669;BME280;29384;42.028;21.388;2022-08-04T14:49:07;98342.13;;;32.02;27.97
42669;BME280;29384;42.028;21.388;2022-08-04T14:51:40;98346.03;;;31.90;28.32
42669;BME280;29384;42.028;21.388;2022-08-04T14:57:27;98348.72;;;31.94;28.59
42669;BME280;29384;42.028;21.388;2022-08-04T14:59:53;98345.22;;;31.97;28.92
42669;BME280;29384;42.028;21.388;2022-08-04T15:02:19;98344.06;;;31.98;28.04
42669;BME280;29384;42.028;21.388;2022-08-04T15:04:44;98345.59;;;32.06;27.35
42669;BME280;29384;42.028;21.388;2022-08-04T15:07:10;98344.44;;;32.03;27.83
42669;BME280;29384;42.028;21.388;2022-08-04T15:12:58;98344.09;;;31.80;28.06
42669;BME280;29384;42.028;21.388;2022-08-04T15:15:23;98329.50;;;31.63;28.22
42669;BME280;29384;42.028;21.388;2022-08-04T15:17:51;98326.44;;;31.47;27.87
42669;BME280;29384;42.028;21.388;2022-08-04T15:20:16;98329.84;;;31.65;27.15
42669;BME280;29384;42.028;21.388;2022-08-04T15:22:42;98333.69;;;31.78;26.64
42669;BME280;29384;42.028;21.388;2022-08-04T15:28:30;98325.66;;;31.53;27.56
42669;BME280;29384;42.028;21.388;2022-08-04T15:30:59;98326.03;;;31.45;27.98
42669;BME280;29384;42.028;21.388;2022-08-04T15:33:26;98328.75;;;31.37;27.54
42669;BME280;29384;42.028;21.388;2022-08-04T15:36:43;98327.63;;;31.28;28.00
42669;BME280;29384;42.028;21.388;2022-08-04T15:39:03;98317.97;;;31.12;27.90
42669;BME280;29384;42.028;21.388;2022-08-04T15:41:59;98319.91;;;31.05;28.53
42669;BME280;29384;42.028;21.388;2022-08-04T15:47:10;98317.97;;;30.94;28.91
42669;BME280;29384;42.028;21.388;2022-08-04T15:49:36;98315.28;;;30.94;29.10
42669;BME280;29384;42.028;21.388;2022-08-04T15:52:06;98311.81;;;30.94;28.91
42669;BME280;29384;42.028;21.388;2022-08-04T15:54:32;98306.03;;;30.95;28.83
42669;BME280;29384;42.028;21.388;2022-08-04T15:57:00;98306.03;;;30.99;28.75
42669;BME280;29384;42.028;21.388;2022-08-04T15:59:54;98307.94;;;31.02;28.93
42669;BME280;29384;42.028;21.388;2022-08-04T16:07:57;98304.84;;;31.22;26.57
42669;BME280;29384;42.028;21.388;2022-08-04T16:12:56;98289.38;;;31.51;25.62
42669;BME280;29384;42.028;21.388;2022-08-04T16:15:46;98280.94;;;31.38;27.52
42669;BME280;29384;42.028;21.388;2022-08-04T16:18:19;98296.00;;;31.32;27.96
42669;BME280;29384;42.028;21.388;2022-08-04T16:20:46;98289.00;;;31.20;29.02
42669;BME280;29384;42.028;21.388;2022-08-04T16:29:28;98293.66;;;31.16;27.66
42669;BME280;29384;42.028;21.388;2022-08-04T16:32:10;98297.91;;;31.13;28.32
42669;BME280;29384;42.028;21.388;2022-08-04T16:34:48;98293.28;;;31.17;28.93
42669;BME280;29384;42.028;21.388;2022-08-04T16:37:15;98292.53;;;31.10;28.99
42669;BME280;29384;42.028;21.388;2022-08-04T16:45:49;98291.38;;;30.86;30.40
42669;BME280;29384;42.028;21.388;2022-08-04T16:48:20;98293.69;;;30.84;30.10
42669;BME280;29384;42.028;21.388;2022-08-04T16:50:47;98292.16;;;30.79;30.02
42669;BME280;29384;42.028;21.388;2022-08-04T16:53:15;98294.09;;;30.75;30.46
42669;BME280;29384;42.028;21.388;2022-08-04T16:59:09;98298.69;;;30.57;31.65
42669;BME280;29384;42.028;21.388;2022-08-04T17:01:35;98298.63;;;30.49;32.03
42669;BME280;29384;42.028;21.388;2022-08-04T17:04:02;98297.09;;;30.41;31.84
42669;BME280;29384;42.028;21.388;2022-08-04T17:06:36;98293.63;;;30.34;32.09
42669;BME280;29384;42.028;21.388;2022-08-04T17:09:10;98295.91;;;30.32;32.48
42669;BME280;29384;42.028;21.388;2022-08-04T17:11:36;98298.59;;;30.28;32.74
42669;BME280;29384;42.028;21.388;2022-08-04T17:14:02;98307.06;;;30.23;34.07
42669;BME280;29384;42.028;21.388;2022-08-04T17:16:28;98298.97;;;30.19;34.74
42669;BME280;29384;42.028;21.388;2022-08-04T17:18:54;98304.72;;;30.14;35.77
42669;BME280;29384;42.028;21.388;2022-08-04T17:21:25;98305.09;;;30.09;35.18
42669;BME280;29384;42.028;21.388;2022-08-04T17:23:56;98315.50;;;30.07;35.45
42669;BME280;29384;42.028;21.388;2022-08-04T17:26:29;98317.00;;;30.01;35.88
42669;BME280;29384;42.028;21.388;2022-08-04T17:28:56;98319.28;;;29.95;35.75
42669;BME280;29384;42.028;21.388;2022-08-04T17:31:24;98326.91;;;29.72;35.55
42669;BME280;29384;42.028;21.388;2022-08-04T17:33:52;98323.69;;;29.56;36.41
42669;BME280;29384;42.028;21.388;2022-08-04T17:36:22;98321.28;;;29.40;37.64
42669;BME280;29384;42.028;21.388;2022-08-04T17:38:50;98326.16;;;29.20;37.99
42669;BME280;29384;42.028;21.388;2022-08-04T17:44:40;98329.66;;;28.79;39.06
42669;BME280;29384;42.028;21.388;2022-08-04T17:47:15;98332.19;;;28.62;40.42
42669;BME280;29384;42.028;21.388;2022-08-04T17:49:42;98330.50;;;28.46;40.70
42669;BME280;29384;42.028;21.388;2022-08-04T17:52:19;98333.16;;;28.43;39.45
42669;BME280;29384;42.028;21.388;2022-08-04T17:54:45;98336.16;;;28.38;39.25
42669;BME280;29384;42.028;21.388;2022-08-04T17:57:20;98333.31;;;28.27;39.84
42669;BME280;29384;42.028;21.388;2022-08-04T17:59:51;98333.25;;;28.20;38.82
42669;BME280;29384;42.028;21.388;2022-08-04T18:02:21;98342.75;;;28.10;39.08
42669;BME280;29384;42.028;21.388;2022-08-04T18:04:49;98346.13;;;28.03;38.81
42669;BME280;29384;42.028;21.388;2022-08-04T18:07:17;98339.44;;;27.90;40.32
42669;BME280;29384;42.028;21.388;2022-08-04T18:14:53;98359.50;;;27.73;38.24
42669;BME280;29384;42.028;21.388;2022-08-04T18:17:33;98348.28;;;27.64;39.44
42669;BME280;29384;42.028;21.388;2022-08-04T18:20:02;98345.53;;;27.60;38.37
42669;BME280;29384;42.028;21.388;2022-08-04T18:22:28;98355.56;;;27.63;38.08
42669;BME280;29384;42.028;21.388;2022-08-04T18:24:54;98363.25;;;27.65;38.03
42669;BME280;29384;42.028;21.388;2022-08-04T18:27:22;98354.09;;;27.70;38.22
42669;BME280;29384;42.028;21.388;2022-08-04T18:29:49;98356.38;;;27.68;37.77
42669;BME280;29384;42.028;21.388;2022-08-04T18:32:15;98358.91;;;27.57;38.87
42669;BME280;29384;42.028;21.388;2022-08-04T18:34:40;98364.91;;;27.47;39.89
42669;BME280;29384;42.028;21.388;2022-08-04T18:37:06;98368.16;;;27.33;40.03
42669;BME280;29384;42.028;21.388;2022-08-04T18:39:32;98375.38;;;27.29;40.87